sensor_id;sensor_type;location;lat;lon;timestamp;temperature;humidity
1137;DHT22;557;48.466;7.950;2024-02-23T00:01:25;7.00;99.90
1137;DHT22;557;48.466;7.950;2024-02-23T00:03:52;7.10;1.00
1137;DHT22;557;48.466;7.950;2024-02-23T00:06:22;7.20;99.90
1137;DHT22;557;48.466;7.950;2024-02-23T00:08:52;7.10;99.90
1137;DHT22;557;48.466;7.950;2024-02-23T00:11:20;7.20;99.90
1137;DHT22;557;48.466;7.950;2024-02-23T00:13:47;7.20;1.00
1137;DHT22;557;48.466;7.950;2024-02-23T00:16:15;7.20;99.90
1137;DHT22;557;48.466;7.950;2024-02-23T00:18:56;7.20;1.00
1137;DHT22;557;48.466;7.950;2024-02-23T00:21:23;7.30;99.90
1137;DHT22;557;48.466;7.950;2024-02-23T00:23:50;7.30;99.90
1137;DHT22;557;48.466;7.950;2024-02-23T00:26:17;7.30;99.90
1137;DHT22;557;48.466;7.950;2024-02-23T00:28:44;7.30;99.90
1137;DHT22;557;48.466;7.950;2024-02-23T00:31:11;7.30;99.90
1137;DHT22;557;48.466;7.950;2024-02-23T00:33:39;7.30;1.00
1137;DHT22;557;48.466;7.950;2024-02-23T00:36:08;7.40;99.90
1137;DHT22;557;48.466;7.950;2024-02-23T00:38:35;7.40;99.90
1137;DHT22;557;48.466;7.950;2024-02-23T00:41:02;7.50;1.00
1137;DHT22;557;48.466;7.950;2024-02-23T00:43:41;7.50;99.90
1137;DHT22;557;48.466;7.950;2024-02-23T00:46:08;7.50;99.90
1137;DHT22;557;48.466;7.950;2024-02-23T00:48:43;7.50;99.90
1137;DHT22;557;48.466;7.950;2024-02-23T00:51:10;7.50;99.90
1137;DHT22;557;48.466;7.950;2024-02-23T00:53:37;7.60;99.90
1137;DHT22;557;48.466;7.950;2024-02-23T00:56:05;7.60;99.90
1137;DHT22;557;48.466;7.950;2024-02-23T00:58:32;7.60;1.00
1137;DHT22;557;48.466;7.950;2024-02-23T01:00:59;7.60;28.60
1137;DHT22;557;48.466;7.950;2024-02-23T01:03:26;7.60;1.00
1137;DHT22;557;48.466;7.950;2024-02-23T01:05:54;7.50;1.00
1137;DHT22;557;48.466;7.950;2024-02-23T01:08:21;7.50;99.90
1137;DHT22;557;48.466;7.950;2024-02-23T01:10:48;7.50;4.90
1137;DHT22;557;48.466;7.950;2024-02-23T01:13:15;7.50;99.90
1137;DHT22;557;48.466;7.950;2024-02-23T01:15:42;7.50;1.00
1137;DHT22;557;48.466;7.950;2024-02-23T01:18:11;7.50;99.90
1137;DHT22;557;48.466;7.950;2024-02-23T01:20:38;7.50;1.00
1137;DHT22;557;48.466;7.950;2024-02-23T01:23:09;7.40;1.00
1137;DHT22;557;48.466;7.950;2024-02-23T01:25:36;7.40;1.00
1137;DHT22;557;48.466;7.950;2024-02-23T01:28:03;7.40;1.00
1137;DHT22;557;48.466;7.950;2024-02-23T01:30:34;7.40;99.90
1137;DHT22;557;48.466;7.950;2024-02-23T01:33:02;7.40;1.00
1137;DHT22;557;48.466;7.950;2024-02-23T01:35:29;7.30;1.00
1137;DHT22;557;48.466;7.950;2024-02-23T01:37:56;7.30;40.90
1137;DHT22;557;48.466;7.950;2024-02-23T01:40:24;7.30;99.90
1137;DHT22;557;48.466;7.950;2024-02-23T01:43:00;7.30;99.90
1137;DHT22;557;48.466;7.950;2024-02-23T01:45:28;7.30;1.00
1137;DHT22;557;48.466;7.950;2024-02-23T01:47:55;7.30;1.00
1137;DHT22;557;48.466;7.950;2024-02-23T01:50:22;7.30;33.90
1137;DHT22;557;48.466;7.950;2024-02-23T01:52:55;7.30;1.00
1137;DHT22;557;48.466;7.950;2024-02-23T01:55:24;7.30;99.90
1137;DHT22;557;48.466;7.950;2024-02-23T01:57:54;7.30;1.00
1137;DHT22;557;48.466;7.950;2024-02-23T02:00:22;7.30;1.00
1137;DHT22;557;48.466;7.950;2024-02-23T02:02:49;7.30;99.90
1137;DHT22;557;48.466;7.950;2024-02-23T02:05:16;7.30;99.90
1137;DHT22;557;48.466;7.950;2024-02-23T02:07:45;7.30;99.90
1137;DHT22;557;48.466;7.950;2024-02-23T02:10:17;7.30;99.90
1137;DHT22;557;48.466;7.950;2024-02-23T02:12:45;7.20;99.90
1137;DHT22;557;48.466;7.950;2024-02-23T02:15:12;7.20;99.90
1137;DHT22;557;48.466;7.950;2024-02-23T02:17:39;7.20;99.90
1137;DHT22;557;48.466;7.950;2024-02-23T02:20:11;7.10;99.90
1137;DHT22;557;48.466;7.950;2024-02-23T02:22:38;7.10;99.90
1137;DHT22;557;48.466;7.950;2024-02-23T02:25:06;7.10;99.90
1137;DHT22;557;48.466;7.950;2024-02-23T02:27:33;7.10;99.90
1137;DHT22;557;48.466;7.950;2024-02-23T02:30:01;7.10;99.90
1137;DHT22;557;48.466;7.950;2024-02-23T02:32:28;7.00;99.90
1137;DHT22;557;48.466;7.950;2024-02-23T02:34:55;7.00;98.50
1137;DHT22;557;48.466;7.950;2024-02-23T02:37:22;7.00;99.90
1137;DHT22;557;48.466;7.950;2024-02-23T02:39:49;7.00;99.90
1137;DHT22;557;48.466;7.950;2024-02-23T02:42:22;7.00;35.40
1137;DHT22;557;48.466;7.950;2024-02-23T02:44:49;7.00;1.00
1137;DHT22;557;48.466;7.950;2024-02-23T02:47:17;7.00;1.00
1137;DHT22;557;48.466;7.950;2024-02-23T02:49:44;7.00;1.00
1137;DHT22;557;48.466;7.950;2024-02-23T02:52:11;7.00;1.00
1137;DHT22;557;48.466;7.950;2024-02-23T02:54:38;7.00;1.00
1137;DHT22;557;48.466;7.950;2024-02-23T02:57:05;6.90;1.00
1137;DHT22;557;48.466;7.950;2024-02-23T02:59:34;6.90;1.00
1137;DHT22;557;48.466;7.950;2024-02-23T03:02:01;6.90;1.00
1137;DHT22;557;48.466;7.950;2024-02-23T03:04:29;6.90;1.00
1137;DHT22;557;48.466;7.950;2024-02-23T03:06:58;6.80;2.40
1137;DHT22;557;48.466;7.950;2024-02-23T03:09:25;6.80;99.90
1137;DHT22;557;48.466;7.950;2024-02-23T03:11:52;6.70;99.90
1137;DHT22;557;48.466;7.950;2024-02-23T03:14:19;6.70;99.90
1137;DHT22;557;48.466;7.950;2024-02-23T03:16:46;6.60;1.00
1137;DHT22;557;48.466;7.950;2024-02-23T03:19:14;6.50;99.90
1137;DHT22;557;48.466;7.950;2024-02-23T03:21:43;6.50;1.00
1137;DHT22;557;48.466;7.950;2024-02-23T03:24:10;6.50;1.00
1137;DHT22;557;48.466;7.950;2024-02-23T03:26:37;6.40;1.00
1137;DHT22;557;48.466;7.950;2024-02-23T03:29:04;6.40;1.00
1137;DHT22;557;48.466;7.950;2024-02-23T03:31:30;6.40;1.00
1137;DHT22;557;48.466;7.950;2024-02-23T03:33:57;6.30;1.00
1137;DHT22;557;48.466;7.950;2024-02-23T03:36:24;6.30;1.00
1137;DHT22;557;48.466;7.950;2024-02-23T03:38:53;6.30;1.00
1137;DHT22;557;48.466;7.950;2024-02-23T03:41:20;6.30;99.90
1137;DHT22;557;48.466;7.950;2024-02-23T03:43:47;6.20;99.90
1137;DHT22;557;48.466;7.950;2024-02-23T03:46:13;6.20;99.90
1137;DHT22;557;48.466;7.950;2024-02-23T03:48:42;6.20;99.90
1137;DHT22;557;48.466;7.950;2024-02-23T03:51:09;6.10;99.90
1137;DHT22;557;48.466;7.950;2024-02-23T03:53:36;6.10;99.90
1137;DHT22;557;48.466;7.950;2024-02-23T03:56:04;6.20;99.90
1137;DHT22;557;48.466;7.950;2024-02-23T03:58:31;6.10;99.90
1137;DHT22;557;48.466;7.950;2024-02-23T04:00:58;6.10;99.90
1137;DHT22;557;48.466;7.950;2024-02-23T04:03:25;6.10;99.90
1137;DHT22;557;48.466;7.950;2024-02-23T04:05:52;6.10;99.90
1137;DHT22;557;48.466;7.950;2024-02-23T04:08:19;6.10;99.90
1137;DHT22;557;48.466;7.950;2024-02-23T04:10:45;6.10;99.90
1137;DHT22;557;48.466;7.950;2024-02-23T04:13:14;6.10;99.90
1137;DHT22;557;48.466;7.950;2024-02-23T04:15:43;6.10;99.90
1137;DHT22;557;48.466;7.950;2024-02-23T04:18:10;6.10;99.90
1137;DHT22;557;48.466;7.950;2024-02-23T04:20:37;6.10;99.90
1137;DHT22;557;48.466;7.950;2024-02-23T04:23:04;6.10;99.90
1137;DHT22;557;48.466;7.950;2024-02-23T04:25:31;6.10;99.90
1137;DHT22;557;48.466;7.950;2024-02-23T04:27:57;6.10;99.90
1137;DHT22;557;48.466;7.950;2024-02-23T04:30:26;6.10;99.90
1137;DHT22;557;48.466;7.950;2024-02-23T04:32:53;6.10;99.90
1137;DHT22;557;48.466;7.950;2024-02-23T04:35:20;6.10;99.90
1137;DHT22;557;48.466;7.950;2024-02-23T04:37:47;6.00;99.90
1137;DHT22;557;48.466;7.950;2024-02-23T04:40:16;6.10;99.90
1137;DHT22;557;48.466;7.950;2024-02-23T04:42:43;6.10;99.90
1137;DHT22;557;48.466;7.950;2024-02-23T04:45:11;6.00;99.90
1137;DHT22;557;48.466;7.950;2024-02-23T04:47:39;6.00;99.90
1137;DHT22;557;48.466;7.950;2024-02-23T04:50:07;6.00;99.90
1137;DHT22;557;48.466;7.950;2024-02-23T04:52:34;6.00;99.90
1137;DHT22;557;48.466;7.950;2024-02-23T04:55:01;6.00;99.90
1137;DHT22;557;48.466;7.950;2024-02-23T04:57:27;6.00;99.90
1137;DHT22;557;48.466;7.950;2024-02-23T04:59:54;6.10;99.90
1137;DHT22;557;48.466;7.950;2024-02-23T05:02:21;6.10;99.90
1137;DHT22;557;48.466;7.950;2024-02-23T05:04:49;6.10;99.90
1137;DHT22;557;48.466;7.950;2024-02-23T05:07:16;6.10;99.90
1137;DHT22;557;48.466;7.950;2024-02-23T05:09:43;6.10;99.90
1137;DHT22;557;48.466;7.950;2024-02-23T05:12:10;6.00;99.90
1137;DHT22;557;48.466;7.950;2024-02-23T05:14:37;6.10;99.90
1137;DHT22;557;48.466;7.950;2024-02-23T05:17:04;6.00;99.90
1137;DHT22;557;48.466;7.950;2024-02-23T05:19:31;6.00;99.90
1137;DHT22;557;48.466;7.950;2024-02-23T05:21:59;5.90;99.90
1137;DHT22;557;48.466;7.950;2024-02-23T05:24:26;6.00;99.90
1137;DHT22;557;48.466;7.950;2024-02-23T05:26:52;6.00;99.90
1137;DHT22;557;48.466;7.950;2024-02-23T05:29:19;6.00;99.90
1137;DHT22;557;48.466;7.950;2024-02-23T05:31:49;6.00;99.90
1137;DHT22;557;48.466;7.950;2024-02-23T05:34:16;6.10;99.90
1137;DHT22;557;48.466;7.950;2024-02-23T05:36:44;6.10;99.90
1137;DHT22;557;48.466;7.950;2024-02-23T05:39:12;6.10;99.90
1137;DHT22;557;48.466;7.950;2024-02-23T05:41:41;6.00;99.90
1137;DHT22;557;48.466;7.950;2024-02-23T05:44:08;6.00;99.90
1137;DHT22;557;48.466;7.950;2024-02-23T05:46:35;6.10;99.90
1137;DHT22;557;48.466;7.950;2024-02-23T05:49:03;6.00;99.90
1137;DHT22;557;48.466;7.950;2024-02-23T05:51:30;6.00;99.90
1137;DHT22;557;48.466;7.950;2024-02-23T05:53:58;5.90;99.90
1137;DHT22;557;48.466;7.950;2024-02-23T05:56:26;6.00;99.90
1137;DHT22;557;48.466;7.950;2024-02-23T05:58:53;5.90;99.90
1137;DHT22;557;48.466;7.950;2024-02-23T06:01:20;5.90;99.90
1137;DHT22;557;48.466;7.950;2024-02-23T06:03:47;5.90;99.90
1137;DHT22;557;48.466;7.950;2024-02-23T06:06:14;6.00;99.90
1137;DHT22;557;48.466;7.950;2024-02-23T06:08:41;6.00;99.90
1137;DHT22;557;48.466;7.950;2024-02-23T06:11:09;6.00;99.90
1137;DHT22;557;48.466;7.950;2024-02-23T06:13:37;6.00;99.90
1137;DHT22;557;48.466;7.950;2024-02-23T06:16:05;6.00;99.90
1137;DHT22;557;48.466;7.950;2024-02-23T06:18:32;6.00;99.90
1137;DHT22;557;48.466;7.950;2024-02-23T06:21:00;5.90;99.90
1137;DHT22;557;48.466;7.950;2024-02-23T06:23:26;5.90;99.90
1137;DHT22;557;48.466;7.950;2024-02-23T06:25:54;5.90;99.90
1137;DHT22;557;48.466;7.950;2024-02-23T06:28:22;5.90;99.90
1137;DHT22;557;48.466;7.950;2024-02-23T06:30:51;5.90;99.90
1137;DHT22;557;48.466;7.950;2024-02-23T06:33:17;5.90;99.90
1137;DHT22;557;48.466;7.950;2024-02-23T06:35:44;5.80;99.90
1137;DHT22;557;48.466;7.950;2024-02-23T06:38:11;5.80;99.90
1137;DHT22;557;48.466;7.950;2024-02-23T06:40:38;5.70;99.90
1137;DHT22;557;48.466;7.950;2024-02-23T06:43:05;5.80;99.90
1137;DHT22;557;48.466;7.950;2024-02-23T06:45:31;5.70;99.90
1137;DHT22;557;48.466;7.950;2024-02-23T06:48:00;5.70;99.90
1137;DHT22;557;48.466;7.950;2024-02-23T06:50:26;5.70;99.90
1137;DHT22;557;48.466;7.950;2024-02-23T06:52:53;5.70;99.90
1137;DHT22;557;48.466;7.950;2024-02-23T06:55:20;5.70;99.90
1137;DHT22;557;48.466;7.950;2024-02-23T06:57:47;5.70;99.90
1137;DHT22;557;48.466;7.950;2024-02-23T07:00:15;5.70;99.90
1137;DHT22;557;48.466;7.950;2024-02-23T07:02:42;5.60;99.90
1137;DHT22;557;48.466;7.950;2024-02-23T07:05:10;5.60;99.90
1137;DHT22;557;48.466;7.950;2024-02-23T07:07:37;5.60;99.90
1137;DHT22;557;48.466;7.950;2024-02-23T07:10:06;5.70;99.90
1137;DHT22;557;48.466;7.950;2024-02-23T07:12:34;5.70;99.90
1137;DHT22;557;48.466;7.950;2024-02-23T07:15:00;5.70;99.90
1137;DHT22;557;48.466;7.950;2024-02-23T07:17:27;5.80;99.90
1137;DHT22;557;48.466;7.950;2024-02-23T07:19:55;5.90;99.90
1137;DHT22;557;48.466;7.950;2024-02-23T07:22:31;5.90;99.90
1137;DHT22;557;48.466;7.950;2024-02-23T07:24:58;6.10;99.90
1137;DHT22;557;48.466;7.950;2024-02-23T07:27:27;6.20;99.90
1137;DHT22;557;48.466;7.950;2024-02-23T07:29:54;6.20;99.90
1137;DHT22;557;48.466;7.950;2024-02-23T07:32:20;6.30;99.90
1137;DHT22;557;48.466;7.950;2024-02-23T07:34:47;6.40;99.90
1137;DHT22;557;48.466;7.950;2024-02-23T07:37:15;6.40;99.90
1137;DHT22;557;48.466;7.950;2024-02-23T07:39:43;6.40;99.90
1137;DHT22;557;48.466;7.950;2024-02-23T07:42:10;6.40;99.90
1137;DHT22;557;48.466;7.950;2024-02-23T07:44:40;6.40;99.90
1137;DHT22;557;48.466;7.950;2024-02-23T07:47:07;6.40;99.90
1137;DHT22;557;48.466;7.950;2024-02-23T07:49:34;6.40;99.90
1137;DHT22;557;48.466;7.950;2024-02-23T07:52:02;6.40;99.90
1137;DHT22;557;48.466;7.950;2024-02-23T07:54:29;6.40;99.90
1137;DHT22;557;48.466;7.950;2024-02-23T07:56:57;6.40;99.90
1137;DHT22;557;48.466;7.950;2024-02-23T07:59:24;6.30;99.90
1137;DHT22;557;48.466;7.950;2024-02-23T08:01:51;6.30;99.90
1137;DHT22;557;48.466;7.950;2024-02-23T08:04:18;6.20;99.90
1137;DHT22;557;48.466;7.950;2024-02-23T08:06:45;6.30;99.90
1137;DHT22;557;48.466;7.950;2024-02-23T08:09:12;6.40;99.90
1137;DHT22;557;48.466;7.950;2024-02-23T08:11:39;6.60;99.90
1137;DHT22;557;48.466;7.950;2024-02-23T08:14:07;6.70;99.90
1137;DHT22;557;48.466;7.950;2024-02-23T08:16:34;6.80;99.90
1137;DHT22;557;48.466;7.950;2024-02-23T08:19:01;6.90;99.90
1137;DHT22;557;48.466;7.950;2024-02-23T08:21:29;7.10;99.90
1137;DHT22;557;48.466;7.950;2024-02-23T08:23:56;7.30;99.90
1137;DHT22;557;48.466;7.950;2024-02-23T08:26:23;7.50;99.90
1137;DHT22;557;48.466;7.950;2024-02-23T08:28:50;7.50;99.90
1137;DHT22;557;48.466;7.950;2024-02-23T08:31:18;7.50;99.90
1137;DHT22;557;48.466;7.950;2024-02-23T08:33:45;7.50;99.90
1137;DHT22;557;48.466;7.950;2024-02-23T08:36:12;7.60;99.90
1137;DHT22;557;48.466;7.950;2024-02-23T08:38:39;7.80;99.90
1137;DHT22;557;48.466;7.950;2024-02-23T08:41:06;7.60;99.90
1137;DHT22;557;48.466;7.950;2024-02-23T08:43:33;7.50;99.90
1137;DHT22;557;48.466;7.950;2024-02-23T08:46:00;7.50;99.90
1137;DHT22;557;48.466;7.950;2024-02-23T08:48:29;7.50;99.90
1137;DHT22;557;48.466;7.950;2024-02-23T08:50:58;7.70;99.90
1137;DHT22;557;48.466;7.950;2024-02-23T08:53:25;7.90;99.90
1137;DHT22;557;48.466;7.950;2024-02-23T08:55:52;8.00;99.90
1137;DHT22;557;48.466;7.950;2024-02-23T08:58:19;8.00;99.90
1137;DHT22;557;48.466;7.950;2024-02-23T09:00:46;8.00;99.90
1137;DHT22;557;48.466;7.950;2024-02-23T09:03:13;8.10;99.90
1137;DHT22;557;48.466;7.950;2024-02-23T09:05:42;8.30;99.90
1137;DHT22;557;48.466;7.950;2024-02-23T09:08:09;8.60;99.90
1137;DHT22;557;48.466;7.950;2024-02-23T09:10:36;8.80;99.90
1137;DHT22;557;48.466;7.950;2024-02-23T09:13:03;8.70;99.90
1137;DHT22;557;48.466;7.950;2024-02-23T09:15:30;8.60;99.90
1137;DHT22;557;48.466;7.950;2024-02-23T09:17:57;8.60;99.90
1137;DHT22;557;48.466;7.950;2024-02-23T09:20:24;8.60;99.90
1137;DHT22;557;48.466;7.950;2024-02-23T09:22:53;8.70;99.90
1137;DHT22;557;48.466;7.950;2024-02-23T09:25:20;8.80;99.90
1137;DHT22;557;48.466;7.950;2024-02-23T09:27:46;8.90;99.90
1137;DHT22;557;48.466;7.950;2024-02-23T09:30:14;9.10;99.90
1137;DHT22;557;48.466;7.950;2024-02-23T09:32:41;8.90;99.90
1137;DHT22;557;48.466;7.950;2024-02-23T09:35:09;9.00;99.90
1137;DHT22;557;48.466;7.950;2024-02-23T09:37:36;9.10;99.90
1137;DHT22;557;48.466;7.950;2024-02-23T09:40:06;9.20;99.90
1137;DHT22;557;48.466;7.950;2024-02-23T09:42:33;9.20;99.90
1137;DHT22;557;48.466;7.950;2024-02-23T09:45:01;9.40;99.90
1137;DHT22;557;48.466;7.950;2024-02-23T09:47:28;9.60;99.90
1137;DHT22;557;48.466;7.950;2024-02-23T09:49:55;9.60;99.90
1137;DHT22;557;48.466;7.950;2024-02-23T09:52:22;9.80;99.90
1137;DHT22;557;48.466;7.950;2024-02-23T09:54:49;10.00;99.90
1137;DHT22;557;48.466;7.950;2024-02-23T09:57:18;9.90;99.90
1137;DHT22;557;48.466;7.950;2024-02-23T09:59:46;10.00;99.90
1137;DHT22;557;48.466;7.950;2024-02-23T10:02:15;10.10;99.90
1137;DHT22;557;48.466;7.950;2024-02-23T10:04:43;10.50;99.90
1137;DHT22;557;48.466;7.950;2024-02-23T10:07:10;10.50;99.90
1137;DHT22;557;48.466;7.950;2024-02-23T10:09:40;10.20;99.90
1137;DHT22;557;48.466;7.950;2024-02-23T10:12:15;10.00;99.90
1137;DHT22;557;48.466;7.950;2024-02-23T10:14:59;9.90;99.90
1137;DHT22;557;48.466;7.950;2024-02-23T10:17:30;10.20;99.90
1137;DHT22;557;48.466;7.950;2024-02-23T10:19:59;10.00;99.90
1137;DHT22;557;48.466;7.950;2024-02-23T10:22:30;9.70;99.90
1137;DHT22;557;48.466;7.950;2024-02-23T10:24:57;9.60;99.90
1137;DHT22;557;48.466;7.950;2024-02-23T10:27:24;9.60;99.90
1137;DHT22;557;48.466;7.950;2024-02-23T10:29:54;9.60;99.90
1137;DHT22;557;48.466;7.950;2024-02-23T10:32:29;10.00;99.90
1137;DHT22;557;48.466;7.950;2024-02-23T10:35:07;10.50;99.90
1137;DHT22;557;48.466;7.950;2024-02-23T10:37:38;11.00;99.90
1137;DHT22;557;48.466;7.950;2024-02-23T10:40:06;11.00;99.90
1137;DHT22;557;48.466;7.950;2024-02-23T10:42:38;11.20;99.90
1137;DHT22;557;48.466;7.950;2024-02-23T10:45:06;11.00;99.90
1137;DHT22;557;48.466;7.950;2024-02-23T10:47:36;10.70;99.90
1137;DHT22;557;48.466;7.950;2024-02-23T10:50:04;10.20;99.90
1137;DHT22;557;48.466;7.950;2024-02-23T10:52:32;10.20;99.90
1137;DHT22;557;48.466;7.950;2024-02-23T10:55:09;10.10;99.90
1137;DHT22;557;48.466;7.950;2024-02-23T10:57:36;10.10;99.90
1137;DHT22;557;48.466;7.950;2024-02-23T11:00:05;10.40;99.90
1137;DHT22;557;48.466;7.950;2024-02-23T11:02:40;10.20;99.90
1137;DHT22;557;48.466;7.950;2024-02-23T11:05:08;10.00;99.90
1137;DHT22;557;48.466;7.950;2024-02-23T11:07:40;10.20;99.90
1137;DHT22;557;48.466;7.950;2024-02-23T11:10:08;10.10;99.90
1137;DHT22;557;48.466;7.950;2024-02-23T11:12:35;10.00;99.90
1137;DHT22;557;48.466;7.950;2024-02-23T11:15:03;9.90;99.90
1137;DHT22;557;48.466;7.950;2024-02-23T11:17:32;10.00;99.90
1137;DHT22;557;48.466;7.950;2024-02-23T11:20:03;9.90;99.90
1137;DHT22;557;48.466;7.950;2024-02-23T11:22:31;9.90;99.90
1137;DHT22;557;48.466;7.950;2024-02-23T11:25:00;10.20;99.90
1137;DHT22;557;48.466;7.950;2024-02-23T11:27:30;10.20;99.90
1137;DHT22;557;48.466;7.950;2024-02-23T11:30:03;10.00;99.90
1137;DHT22;557;48.466;7.950;2024-02-23T11:32:38;9.80;99.90
1137;DHT22;557;48.466;7.950;2024-02-23T11:35:08;9.90;99.90
1137;DHT22;557;48.466;7.950;2024-02-23T11:37:47;9.80;99.90
1137;DHT22;557;48.466;7.950;2024-02-23T11:40:14;9.90;99.90
1137;DHT22;557;48.466;7.950;2024-02-23T11:42:41;10.00;99.90
1137;DHT22;557;48.466;7.950;2024-02-23T11:45:09;10.00;99.90
1137;DHT22;557;48.466;7.950;2024-02-23T11:47:37;10.10;99.90
1137;DHT22;557;48.466;7.950;2024-02-23T11:50:08;10.20;99.90
1137;DHT22;557;48.466;7.950;2024-02-23T11:52:35;10.20;99.90
1137;DHT22;557;48.466;7.950;2024-02-23T11:55:04;10.40;99.90
1137;DHT22;557;48.466;7.950;2024-02-23T11:57:31;10.40;99.90
1137;DHT22;557;48.466;7.950;2024-02-23T12:00:01;10.30;99.90
1137;DHT22;557;48.466;7.950;2024-02-23T12:02:28;10.60;99.90
1137;DHT22;557;48.466;7.950;2024-02-23T12:04:55;10.90;99.90
1137;DHT22;557;48.466;7.950;2024-02-23T12:07:23;10.70;99.90
1137;DHT22;557;48.466;7.950;2024-02-23T12:09:52;10.80;99.90
1137;DHT22;557;48.466;7.950;2024-02-23T12:12:19;10.70;99.90
1137;DHT22;557;48.466;7.950;2024-02-23T12:14:46;10.50;99.90
1137;DHT22;557;48.466;7.950;2024-02-23T12:17:13;10.20;99.90
1137;DHT22;557;48.466;7.950;2024-02-23T12:19:41;10.20;99.90
1137;DHT22;557;48.466;7.950;2024-02-23T12:22:10;10.10;99.90
1137;DHT22;557;48.466;7.950;2024-02-23T12:24:41;10.20;99.90
1137;DHT22;557;48.466;7.950;2024-02-23T12:27:08;10.10;99.90
1137;DHT22;557;48.466;7.950;2024-02-23T12:29:35;10.10;99.90
1137;DHT22;557;48.466;7.950;2024-02-23T12:32:04;10.60;99.90
1137;DHT22;557;48.466;7.950;2024-02-23T12:34:33;11.70;99.90
1137;DHT22;557;48.466;7.950;2024-02-23T12:37:02;12.60;99.90
1137;DHT22;557;48.466;7.950;2024-02-23T12:39:29;13.10;99.90
1137;DHT22;557;48.466;7.950;2024-02-23T12:41:58;13.10;99.90
1137;DHT22;557;48.466;7.950;2024-02-23T12:44:25;12.20;99.90
1137;DHT22;557;48.466;7.950;2024-02-23T12:46:52;12.10;99.90
1137;DHT22;557;48.466;7.950;2024-02-23T12:49:19;12.10;99.90
1137;DHT22;557;48.466;7.950;2024-02-23T12:51:51;11.50;99.90
1137;DHT22;557;48.466;7.950;2024-02-23T12:54:18;11.50;99.90
1137;DHT22;557;48.466;7.950;2024-02-23T12:56:59;12.00;99.90
1137;DHT22;557;48.466;7.950;2024-02-23T12:59:26;12.80;99.90
1137;DHT22;557;48.466;7.950;2024-02-23T13:01:55;13.40;99.90
1137;DHT22;557;48.466;7.950;2024-02-23T13:04:22;14.10;99.90
1137;DHT22;557;48.466;7.950;2024-02-23T13:06:49;14.90;99.90
1137;DHT22;557;48.466;7.950;2024-02-23T13:09:16;14.30;99.90
1137;DHT22;557;48.466;7.950;2024-02-23T13:11:43;13.20;99.90
1137;DHT22;557;48.466;7.950;2024-02-23T13:14:12;12.40;99.90
1137;DHT22;557;48.466;7.950;2024-02-23T13:16:41;12.30;99.90
1137;DHT22;557;48.466;7.950;2024-02-23T13:19:08;12.80;99.90
1137;DHT22;557;48.466;7.950;2024-02-23T13:21:35;13.30;99.90
1137;DHT22;557;48.466;7.950;2024-02-23T13:24:03;14.20;99.90
1137;DHT22;557;48.466;7.950;2024-02-23T13:26:30;14.30;99.40
1137;DHT22;557;48.466;7.950;2024-02-23T13:28:57;14.10;99.90
1137;DHT22;557;48.466;7.950;2024-02-23T13:31:26;13.70;99.90
1137;DHT22;557;48.466;7.950;2024-02-23T13:33:52;13.80;99.90
1137;DHT22;557;48.466;7.950;2024-02-23T13:36:19;13.60;99.90
1137;DHT22;557;48.466;7.950;2024-02-23T13:38:46;13.70;99.90
1137;DHT22;557;48.466;7.950;2024-02-23T13:41:13;13.70;99.90
1137;DHT22;557;48.466;7.950;2024-02-23T13:43:40;14.20;99.90
1137;DHT22;557;48.466;7.950;2024-02-23T13:46:07;14.50;99.90
1137;DHT22;557;48.466;7.950;2024-02-23T13:48:35;14.20;99.90
1137;DHT22;557;48.466;7.950;2024-02-23T13:51:02;14.20;99.90
1137;DHT22;557;48.466;7.950;2024-02-23T13:53:30;14.00;99.90
1137;DHT22;557;48.466;7.950;2024-02-23T13:55:58;14.20;99.90
1137;DHT22;557;48.466;7.950;2024-02-23T13:58:26;13.80;98.10
1137;DHT22;557;48.466;7.950;2024-02-23T14:00:53;13.50;97.10
1137;DHT22;557;48.466;7.950;2024-02-23T14:03:20;13.80;99.40
1137;DHT22;557;48.466;7.950;2024-02-23T14:05:51;14.40;98.70
1137;DHT22;557;48.466;7.950;2024-02-23T14:08:19;15.10;99.10
1137;DHT22;557;48.466;7.950;2024-02-23T14:10:45;15.10;96.50
1137;DHT22;557;48.466;7.950;2024-02-23T14:13:13;15.30;97.30
1137;DHT22;557;48.466;7.950;2024-02-23T14:15:43;14.50;92.00
1137;DHT22;557;48.466;7.950;2024-02-23T14:18:16;15.00;95.20
1137;DHT22;557;48.466;7.950;2024-02-23T14:20:43;15.30;93.80
1137;DHT22;557;48.466;7.950;2024-02-23T14:23:12;15.00;90.90
1137;DHT22;557;48.466;7.950;2024-02-23T14:25:38;14.70;89.00
1137;DHT22;557;48.466;7.950;2024-02-23T14:28:05;14.10;83.80
1137;DHT22;557;48.466;7.950;2024-02-23T14:30:32;14.10;82.00
1137;DHT22;557;48.466;7.950;2024-02-23T14:33:01;13.70;81.60
1137;DHT22;557;48.466;7.950;2024-02-23T14:35:28;13.40;91.80
1137;DHT22;557;48.466;7.950;2024-02-23T14:37:55;12.70;74.10
1137;DHT22;557;48.466;7.950;2024-02-23T14:40:25;12.30;72.40
1137;DHT22;557;48.466;7.950;2024-02-23T14:42:52;12.00;72.00
1137;DHT22;557;48.466;7.950;2024-02-23T14:45:20;11.80;71.40
1137;DHT22;557;48.466;7.950;2024-02-23T14:47:52;11.70;67.00
1137;DHT22;557;48.466;7.950;2024-02-23T14:50:19;11.60;68.50
1137;DHT22;557;48.466;7.950;2024-02-23T14:52:48;11.40;68.50
1137;DHT22;557;48.466;7.950;2024-02-23T14:55:15;11.40;67.90
1137;DHT22;557;48.466;7.950;2024-02-23T14:57:44;11.50;71.50
1137;DHT22;557;48.466;7.950;2024-02-23T15:00:12;12.50;80.90
1137;DHT22;557;48.466;7.950;2024-02-23T15:02:39;13.30;82.80
1137;DHT22;557;48.466;7.950;2024-02-23T15:05:06;13.90;83.10
1137;DHT22;557;48.466;7.950;2024-02-23T15:07:33;14.50;84.00
1137;DHT22;557;48.466;7.950;2024-02-23T15:10:01;14.50;82.90
1137;DHT22;557;48.466;7.950;2024-02-23T15:12:30;14.50;76.00
1137;DHT22;557;48.466;7.950;2024-02-23T15:14:59;13.80;68.60
1137;DHT22;557;48.466;7.950;2024-02-23T15:17:26;12.70;58.80
1137;DHT22;557;48.466;7.950;2024-02-23T15:19:52;12.20;56.80
1137;DHT22;557;48.466;7.950;2024-02-23T15:22:19;12.00;56.30
1137;DHT22;557;48.466;7.950;2024-02-23T15:24:46;12.20;58.90
1137;DHT22;557;48.466;7.950;2024-02-23T15:27:15;12.10;56.90
1137;DHT22;557;48.466;7.950;2024-02-23T15:29:42;12.30;58.20
1137;DHT22;557;48.466;7.950;2024-02-23T15:32:10;12.60;58.80
1137;DHT22;557;48.466;7.950;2024-02-23T15:34:38;12.70;60.40
1137;DHT22;557;48.466;7.950;2024-02-23T15:37:05;12.40;58.40
1137;DHT22;557;48.466;7.950;2024-02-23T15:39:32;11.90;55.90
1137;DHT22;557;48.466;7.950;2024-02-23T15:41:58;11.70;55.30
1137;DHT22;557;48.466;7.950;2024-02-23T15:44:25;11.40;67.10
1137;DHT22;557;48.466;7.950;2024-02-23T15:46:52;11.20;55.60
1137;DHT22;557;48.466;7.950;2024-02-23T15:49:20;11.20;55.40
1137;DHT22;557;48.466;7.950;2024-02-23T15:51:50;11.10;55.50
1137;DHT22;557;48.466;7.950;2024-02-23T15:54:18;10.90;56.00
1137;DHT22;557;48.466;7.950;2024-02-23T15:56:44;10.80;57.00
1137;DHT22;557;48.466;7.950;2024-02-23T15:59:11;10.70;57.60
1137;DHT22;557;48.466;7.950;2024-02-23T16:01:38;10.70;58.50
1137;DHT22;557;48.466;7.950;2024-02-23T16:04:05;10.70;59.10
1137;DHT22;557;48.466;7.950;2024-02-23T16:06:36;10.70;62.20
1137;DHT22;557;48.466;7.950;2024-02-23T16:09:03;10.70;62.60
1137;DHT22;557;48.466;7.950;2024-02-23T16:11:33;10.60;65.00
1137;DHT22;557;48.466;7.950;2024-02-23T16:14:00;10.60;66.60
1137;DHT22;557;48.466;7.950;2024-02-23T16:16:28;10.60;67.80
1137;DHT22;557;48.466;7.950;2024-02-23T16:18:55;10.60;69.90
1137;DHT22;557;48.466;7.950;2024-02-23T16:21:22;10.50;72.90
1137;DHT22;557;48.466;7.950;2024-02-23T16:23:50;10.60;75.30
1137;DHT22;557;48.466;7.950;2024-02-23T16:26:17;10.50;76.00
1137;DHT22;557;48.466;7.950;2024-02-23T16:28:44;10.40;78.90
1137;DHT22;557;48.466;7.950;2024-02-23T16:31:11;10.30;80.20
1137;DHT22;557;48.466;7.950;2024-02-23T16:33:37;10.20;82.00